Terminal Aerodrome Forecast
Issued by NWS

Home | Current Version | Previous Version | Text Only | Print | Product List | Glossary On
Versions: 1 2 3 4 5 6 7 8 9 10 11 12 13 14
000
FTUS45 KRIW 231600 AAA
TAFBPI
TAF AMD
KBPI 231631Z 2317/2412 36008KT 2SM -SN OVC023
     FM231715 32007KT P6SM VCSH SCT030 BKN060
     FM232300 34007KT P6SM SCT050
     FM240400 33006KT P6SM VCFG SKC
     FM240900 VRB05KT P6SM VCFG FEW005 SCT100=

USA.gov is the U.S. government's official web portal to all federal, state and local government web resources and services.